sensor_id;sensor_type;location;lat;lon;timestamp;pressure;altitude;pressure_sealevel;temperature;humidity
21828;BME280;11076;47.942;11.804;2023-05-22T00:02:54;93967.91;;;11.81;100.00
21828;BME280;11076;47.942;11.804;2023-05-22T00:07:58;93967.69;;;11.70;100.00
21828;BME280;11076;47.942;11.804;2023-05-22T00:13:00;93964.88;;;11.65;100.00
21828;BME280;11076;47.942;11.804;2023-05-22T00:18:03;93966.19;;;11.63;100.00
21828;BME280;11076;47.942;11.804;2023-05-22T00:23:07;93969.91;;;11.62;100.00
21828;BME280;11076;47.942;11.804;2023-05-22T00:28:13;93962.56;;;11.57;100.00
21828;BME280;11076;47.942;11.804;2023-05-22T00:33:16;93961.19;;;11.54;100.00
21828;BME280;11076;47.942;11.804;2023-05-22T00:38:33;93965.81;;;11.59;100.00
21828;BME280;11076;47.942;11.804;2023-05-22T00:43:37;93959.91;;;11.57;100.00
21828;BME280;11076;47.942;11.804;2023-05-22T00:48:40;93962.72;;;11.50;100.00
21828;BME280;11076;47.942;11.804;2023-05-22T00:53:44;93962.38;;;11.47;100.00
21828;BME280;11076;47.942;11.804;2023-05-22T00:58:47;93955.41;;;11.34;100.00
21828;BME280;11076;47.942;11.804;2023-05-22T01:03:51;93950.06;;;11.22;100.00
21828;BME280;11076;47.942;11.804;2023-05-22T01:08:54;93960.63;;;11.17;100.00
21828;BME280;11076;47.942;11.804;2023-05-22T01:36:02;93972.53;;;10.55;100.00
21828;BME280;11076;47.942;11.804;2023-05-22T01:41:07;93982.03;;;10.51;100.00
21828;BME280;11076;47.942;11.804;2023-05-22T01:46:10;93980.88;;;10.47;100.00
21828;BME280;11076;47.942;11.804;2023-05-22T01:56:29;93986.31;;;10.41;100.00
21828;BME280;11076;47.942;11.804;2023-05-22T02:01:36;93980.13;;;10.40;100.00
21828;BME280;11076;47.942;11.804;2023-05-22T02:06:40;93988.03;;;10.35;100.00
21828;BME280;11076;47.942;11.804;2023-05-22T02:11:44;93989.53;;;10.31;100.00
21828;BME280;11076;47.942;11.804;2023-05-22T02:16:48;93981.06;;;10.34;100.00
21828;BME280;11076;47.942;11.804;2023-05-22T02:21:51;93982.91;;;10.33;100.00
21828;BME280;11076;47.942;11.804;2023-05-22T02:26:53;93985.81;;;10.32;100.00
21828;BME280;11076;47.942;11.804;2023-05-22T02:31:56;93985.66;;;10.27;100.00
21828;BME280;11076;47.942;11.804;2023-05-22T02:37:00;93989.34;;;10.26;100.00
21828;BME280;11076;47.942;11.804;2023-05-22T02:42:06;94005.38;;;10.26;100.00
21828;BME280;11076;47.942;11.804;2023-05-22T02:47:10;93997.09;;;10.15;100.00
21828;BME280;11076;47.942;11.804;2023-05-22T02:52:12;94001.38;;;10.16;100.00
21828;BME280;11076;47.942;11.804;2023-05-22T02:57:15;93999.88;;;10.09;100.00
21828;BME280;11076;47.942;11.804;2023-05-22T03:02:17;94006.91;;;10.03;100.00
21828;BME280;11076;47.942;11.804;2023-05-22T03:07:22;94005.84;;;10.04;100.00
21828;BME280;11076;47.942;11.804;2023-05-22T03:12:27;94004.03;;;10.05;100.00
21828;BME280;11076;47.942;11.804;2023-05-22T03:17:29;94011.34;;;10.09;100.00
21828;BME280;11076;47.942;11.804;2023-05-22T03:22:32;94020.88;;;10.05;100.00
21828;BME280;11076;47.942;11.804;2023-05-22T03:27:34;94013.16;;;9.97;100.00
21828;BME280;11076;47.942;11.804;2023-05-22T03:32:37;94019.69;;;10.01;100.00
21828;BME280;11076;47.942;11.804;2023-05-22T03:37:40;94007.47;;;10.24;100.00
21828;BME280;11076;47.942;11.804;2023-05-22T03:42:43;94003.63;;;10.92;100.00
21828;BME280;11076;47.942;11.804;2023-05-22T03:47:45;94004.03;;;11.66;100.00
21828;BME280;11076;47.942;11.804;2023-05-22T03:52:48;94008.81;;;11.41;99.22
21828;BME280;11076;47.942;11.804;2023-05-22T03:57:50;94001.56;;;11.53;98.45
21828;BME280;11076;47.942;11.804;2023-05-22T04:02:53;94017.63;;;11.77;96.81
21828;BME280;11076;47.942;11.804;2023-05-22T04:07:58;94016.69;;;11.71;93.01
21828;BME280;11076;47.942;11.804;2023-05-22T04:13:00;94022.75;;;11.78;93.77
21828;BME280;11076;47.942;11.804;2023-05-22T04:18:03;94021.00;;;11.84;93.92
21828;BME280;11076;47.942;11.804;2023-05-22T04:23:05;94029.09;;;12.24;92.63
21828;BME280;11076;47.942;11.804;2023-05-22T04:28:08;94026.34;;;12.65;90.28
21828;BME280;11076;47.942;11.804;2023-05-22T04:33:10;94028.31;;;13.15;88.37
21828;BME280;11076;47.942;11.804;2023-05-22T04:38:13;94037.34;;;13.60;86.83
21828;BME280;11076;47.942;11.804;2023-05-22T04:43:17;94037.84;;;14.12;85.05
21828;BME280;11076;47.942;11.804;2023-05-22T04:48:19;94040.41;;;14.46;82.07
21828;BME280;11076;47.942;11.804;2023-05-22T04:53:22;94038.97;;;14.61;81.38
21828;BME280;11076;47.942;11.804;2023-05-22T04:58:25;94036.78;;;14.85;81.33
21828;BME280;11076;47.942;11.804;2023-05-22T05:03:30;94034.13;;;15.49;79.07
21828;BME280;11076;47.942;11.804;2023-05-22T05:08:33;94035.13;;;16.18;71.66
21828;BME280;11076;47.942;11.804;2023-05-22T05:13:36;94016.03;;;17.14;70.32
21828;BME280;11076;47.942;11.804;2023-05-22T05:18:38;94002.53;;;21.38;56.29
21828;BME280;11076;47.942;11.804;2023-05-22T05:23:41;94015.38;;;24.58;48.82
21828;BME280;11076;47.942;11.804;2023-05-22T05:28:43;93999.06;;;26.32;43.68
21828;BME280;11076;47.942;11.804;2023-05-22T05:33:46;94008.78;;;26.68;39.67
21828;BME280;11076;47.942;11.804;2023-05-22T05:39:02;94011.78;;;27.77;37.51
21828;BME280;11076;47.942;11.804;2023-05-22T05:44:08;93997.88;;;28.61;34.75
21828;BME280;11076;47.942;11.804;2023-05-22T05:49:10;93994.66;;;29.33;34.75
21828;BME280;11076;47.942;11.804;2023-05-22T05:54:14;94009.47;;;29.69;32.69
21828;BME280;11076;47.942;11.804;2023-05-22T05:59:18;94021.16;;;29.13;33.48
21828;BME280;11076;47.942;11.804;2023-05-22T06:04:39;94008.63;;;29.40;34.26
21828;BME280;11076;47.942;11.804;2023-05-22T06:09:44;94013.91;;;29.33;33.47
21828;BME280;11076;47.942;11.804;2023-05-22T06:15:09;94013.91;;;29.33;33.42
21828;BME280;11076;47.942;11.804;2023-05-22T06:20:14;94010.47;;;28.62;34.41
21828;BME280;11076;47.942;11.804;2023-05-22T06:25:16;94017.94;;;25.12;40.12
21828;BME280;11076;47.942;11.804;2023-05-22T06:30:21;94031.66;;;22.50;46.89
21828;BME280;11076;47.942;11.804;2023-05-22T06:35:34;94029.28;;;21.50;50.19
21828;BME280;11076;47.942;11.804;2023-05-22T06:40:36;94021.84;;;21.36;51.28
21828;BME280;11076;47.942;11.804;2023-05-22T06:45:46;94019.66;;;21.19;50.44
21828;BME280;11076;47.942;11.804;2023-05-22T06:50:51;94027.16;;;21.28;48.95
21828;BME280;11076;47.942;11.804;2023-05-22T06:55:55;94031.63;;;21.18;49.41
21828;BME280;11076;47.942;11.804;2023-05-22T07:01:11;94036.91;;;21.29;48.97
21828;BME280;11076;47.942;11.804;2023-05-22T07:06:22;94042.00;;;21.54;48.28
21828;BME280;11076;47.942;11.804;2023-05-22T07:11:27;94040.38;;;21.86;48.56
21828;BME280;11076;47.942;11.804;2023-05-22T07:16:29;94046.63;;;21.73;49.57
21828;BME280;11076;47.942;11.804;2023-05-22T07:21:33;94048.50;;;22.05;49.00
21828;BME280;11076;47.942;11.804;2023-05-22T07:26:40;94045.59;;;22.34;49.80
21828;BME280;11076;47.942;11.804;2023-05-22T07:31:47;94047.19;;;22.35;49.34
21828;BME280;11076;47.942;11.804;2023-05-22T07:36:50;94037.00;;;22.41;49.25
21828;BME280;11076;47.942;11.804;2023-05-22T07:41:53;94041.94;;;22.06;49.44
21828;BME280;11076;47.942;11.804;2023-05-22T07:46:57;94035.22;;;22.17;50.30
21828;BME280;11076;47.942;11.804;2023-05-22T07:52:02;94040.44;;;22.33;50.96
21828;BME280;11076;47.942;11.804;2023-05-22T07:57:05;94037.59;;;22.52;51.01
21828;BME280;11076;47.942;11.804;2023-05-22T08:02:13;94035.59;;;22.57;50.59
21828;BME280;11076;47.942;11.804;2023-05-22T08:07:15;94036.00;;;22.78;50.20
21828;BME280;11076;47.942;11.804;2023-05-22T08:12:18;94036.88;;;22.88;50.47
21828;BME280;11076;47.942;11.804;2023-05-22T08:17:20;94038.09;;;22.81;49.58
21828;BME280;11076;47.942;11.804;2023-05-22T08:22:23;94035.78;;;23.02;50.25
21828;BME280;11076;47.942;11.804;2023-05-22T08:27:25;94037.38;;;23.17;49.86
21828;BME280;11076;47.942;11.804;2023-05-22T08:32:28;94036.72;;;23.34;50.05
21828;BME280;11076;47.942;11.804;2023-05-22T08:37:30;94029.91;;;22.95;48.84
21828;BME280;11076;47.942;11.804;2023-05-22T08:42:33;94023.50;;;23.28;49.54
21828;BME280;11076;47.942;11.804;2023-05-22T08:47:36;94025.28;;;23.46;49.28
21828;BME280;11076;47.942;11.804;2023-05-22T08:52:50;94015.38;;;23.50;48.95
21828;BME280;11076;47.942;11.804;2023-05-22T08:57:55;94018.19;;;23.45;49.31
21828;BME280;11076;47.942;11.804;2023-05-22T09:02:58;94011.00;;;23.49;50.24
21828;BME280;11076;47.942;11.804;2023-05-22T09:08:02;94013.97;;;23.39;48.88
21828;BME280;11076;47.942;11.804;2023-05-22T09:13:09;94008.03;;;23.59;49.04
21828;BME280;11076;47.942;11.804;2023-05-22T09:18:12;94003.06;;;23.61;49.10
21828;BME280;11076;47.942;11.804;2023-05-22T09:23:15;94009.28;;;23.98;48.95
21828;BME280;11076;47.942;11.804;2023-05-22T09:28:22;94006.53;;;23.90;48.61
21828;BME280;11076;47.942;11.804;2023-05-22T09:33:24;94004.22;;;24.06;49.08
21828;BME280;11076;47.942;11.804;2023-05-22T09:38:28;94008.03;;;24.05;50.05
21828;BME280;11076;47.942;11.804;2023-05-22T09:43:32;94010.09;;;24.30;50.15
21828;BME280;11076;47.942;11.804;2023-05-22T09:48:35;94013.84;;;24.43;48.77
21828;BME280;11076;47.942;11.804;2023-05-22T09:53:38;94012.03;;;24.30;47.06
21828;BME280;11076;47.942;11.804;2023-05-22T09:58:43;94014.72;;;24.52;48.03
21828;BME280;11076;47.942;11.804;2023-05-22T10:03:50;94013.41;;;24.50;46.89
21828;BME280;11076;47.942;11.804;2023-05-22T10:09:02;94008.38;;;24.74;47.05
21828;BME280;11076;47.942;11.804;2023-05-22T10:14:07;94008.84;;;24.76;45.98
21828;BME280;11076;47.942;11.804;2023-05-22T10:19:10;94003.81;;;24.61;45.88
21828;BME280;11076;47.942;11.804;2023-05-22T10:24:14;94002.44;;;24.81;46.01
21828;BME280;11076;47.942;11.804;2023-05-22T10:29:24;94007.50;;;25.14;45.88
21828;BME280;11076;47.942;11.804;2023-05-22T10:34:46;93996.69;;;25.00;43.50
21828;BME280;11076;47.942;11.804;2023-05-22T10:40:01;94005.91;;;25.56;45.57
21828;BME280;11076;47.942;11.804;2023-05-22T10:45:06;93998.53;;;25.48;43.66
21828;BME280;11076;47.942;11.804;2023-05-22T10:50:10;93993.72;;;25.63;44.19
21828;BME280;11076;47.942;11.804;2023-05-22T10:55:13;93994.66;;;25.49;44.19
21828;BME280;11076;47.942;11.804;2023-05-22T11:00:15;93982.88;;;25.84;44.70
21828;BME280;11076;47.942;11.804;2023-05-22T11:10:56;93977.25;;;25.80;43.27
21828;BME280;11076;47.942;11.804;2023-05-22T11:16:07;93976.72;;;26.13;43.04
21828;BME280;11076;47.942;11.804;2023-05-22T11:21:10;93974.03;;;25.95;42.92
21828;BME280;11076;47.942;11.804;2023-05-22T11:26:20;93968.88;;;26.03;42.83
21828;BME280;11076;47.942;11.804;2023-05-22T11:31:26;93974.97;;;25.99;44.90
21828;BME280;11076;47.942;11.804;2023-05-22T11:36:30;93973.31;;;24.76;45.99
21828;BME280;11076;47.942;11.804;2023-05-22T11:41:33;93972.34;;;24.32;46.37
21828;BME280;11076;47.942;11.804;2023-05-22T11:46:37;93956.81;;;25.60;43.81
21828;BME280;11076;47.942;11.804;2023-05-22T11:51:39;93950.53;;;25.94;42.58
21828;BME280;11076;47.942;11.804;2023-05-22T11:56:42;93947.22;;;26.10;41.37
21828;BME280;11076;47.942;11.804;2023-05-22T12:01:48;93947.75;;;26.80;40.46
21828;BME280;11076;47.942;11.804;2023-05-22T12:06:52;93952.47;;;27.22;38.88
21828;BME280;11076;47.942;11.804;2023-05-22T12:11:55;93945.94;;;27.35;37.30
21828;BME280;11076;47.942;11.804;2023-05-22T12:17:00;93947.81;;;27.43;40.63
21828;BME280;11076;47.942;11.804;2023-05-22T12:22:03;93936.00;;;27.64;40.61
21828;BME280;11076;47.942;11.804;2023-05-22T12:27:08;93935.84;;;27.27;40.67
21828;BME280;11076;47.942;11.804;2023-05-22T12:32:11;93936.50;;;27.24;40.69
21828;BME280;11076;47.942;11.804;2023-05-22T12:37:18;93937.88;;;26.58;42.49
21828;BME280;11076;47.942;11.804;2023-05-22T12:42:21;93925.94;;;26.54;41.09
21828;BME280;11076;47.942;11.804;2023-05-22T12:47:24;93937.84;;;26.88;38.96
21828;BME280;11076;47.942;11.804;2023-05-22T12:52:27;93924.09;;;27.17;38.42
21828;BME280;11076;47.942;11.804;2023-05-22T12:57:29;93933.00;;;27.14;36.65
21828;BME280;11076;47.942;11.804;2023-05-22T13:02:31;93907.66;;;27.38;37.22
21828;BME280;11076;47.942;11.804;2023-05-22T13:07:34;93900.94;;;27.48;38.59
21828;BME280;11076;47.942;11.804;2023-05-22T13:12:36;93902.81;;;27.90;40.03
21828;BME280;11076;47.942;11.804;2023-05-22T13:17:39;93903.47;;;27.53;42.15
21828;BME280;11076;47.942;11.804;2023-05-22T13:22:41;93907.50;;;26.33;44.06
21828;BME280;11076;47.942;11.804;2023-05-22T13:27:44;93913.63;;;25.74;45.64
21828;BME280;11076;47.942;11.804;2023-05-22T13:32:47;93916.84;;;25.76;44.81
21828;BME280;11076;47.942;11.804;2023-05-22T13:37:49;93914.00;;;25.73;44.54
21828;BME280;11076;47.942;11.804;2023-05-22T13:42:52;93908.78;;;25.97;43.81
21828;BME280;11076;47.942;11.804;2023-05-22T13:47:54;93918.63;;;25.81;44.51
21828;BME280;11076;47.942;11.804;2023-05-22T13:52:57;93929.63;;;25.64;45.52
21828;BME280;11076;47.942;11.804;2023-05-22T13:57:59;93909.50;;;25.59;45.59
21828;BME280;11076;47.942;11.804;2023-05-22T14:03:01;93918.06;;;25.49;46.83
21828;BME280;11076;47.942;11.804;2023-05-22T14:08:04;93930.88;;;24.70;49.06
21828;BME280;11076;47.942;11.804;2023-05-22T14:13:06;93933.81;;;23.94;50.81
21828;BME280;11076;47.942;11.804;2023-05-22T14:18:09;93932.00;;;22.99;53.81
21828;BME280;11076;47.942;11.804;2023-05-22T14:23:13;93936.44;;;22.17;54.73
21828;BME280;11076;47.942;11.804;2023-05-22T14:28:15;93939.22;;;21.84;54.74
21828;BME280;11076;47.942;11.804;2023-05-22T14:33:18;93968.03;;;21.19;55.08
21828;BME280;11076;47.942;11.804;2023-05-22T14:38:20;93981.97;;;20.94;53.57
21828;BME280;11076;47.942;11.804;2023-05-22T14:43:22;93987.47;;;20.70;54.14
21828;BME280;11076;47.942;11.804;2023-05-22T14:48:25;93998.09;;;20.66;54.60
21828;BME280;11076;47.942;11.804;2023-05-22T14:53:30;94007.81;;;20.48;56.53
21828;BME280;11076;47.942;11.804;2023-05-22T17:52:14;93932.03;;;19.21;78.10
21828;BME280;11076;47.942;11.804;2023-05-22T17:57:17;93933.94;;;18.76;79.68
21828;BME280;11076;47.942;11.804;2023-05-22T18:02:19;93928.81;;;18.74;78.27
21828;BME280;11076;47.942;11.804;2023-05-22T18:07:22;93936.84;;;18.45;78.28
21828;BME280;11076;47.942;11.804;2023-05-22T18:12:24;93936.63;;;18.31;79.21
21828;BME280;11076;47.942;11.804;2023-05-22T18:17:32;93944.41;;;17.52;83.24
21828;BME280;11076;47.942;11.804;2023-05-22T18:22:36;93955.78;;;17.03;86.27
21828;BME280;11076;47.942;11.804;2023-05-22T18:27:39;93942.25;;;16.77;86.67
21828;BME280;11076;47.942;11.804;2023-05-22T18:32:41;93957.84;;;16.49;88.80
21828;BME280;11076;47.942;11.804;2023-05-22T18:37:43;93965.28;;;16.17;92.82
21828;BME280;11076;47.942;11.804;2023-05-22T18:42:46;93968.94;;;15.90;95.39
21828;BME280;11076;47.942;11.804;2023-05-22T18:47:48;93972.34;;;15.75;97.49
21828;BME280;11076;47.942;11.804;2023-05-22T18:52:51;93983.34;;;15.68;97.95
21828;BME280;11076;47.942;11.804;2023-05-22T18:57:53;93981.91;;;15.56;97.94
21828;BME280;11076;47.942;11.804;2023-05-22T19:02:55;93990.22;;;15.49;98.30
21828;BME280;11076;47.942;11.804;2023-05-22T19:07:58;93982.63;;;15.41;97.98
21828;BME280;11076;47.942;11.804;2023-05-22T19:13:00;93986.66;;;15.43;97.30
21828;BME280;11076;47.942;11.804;2023-05-22T19:18:03;93996.13;;;15.46;96.54
21828;BME280;11076;47.942;11.804;2023-05-22T19:23:05;93996.53;;;15.65;94.91
21828;BME280;11076;47.942;11.804;2023-05-22T19:28:08;93995.28;;;15.78;93.38
21828;BME280;11076;47.942;11.804;2023-05-22T19:33:10;94007.59;;;15.68;95.30
21828;BME280;11076;47.942;11.804;2023-05-22T19:38:15;94018.13;;;15.38;100.00
21828;BME280;11076;47.942;11.804;2023-05-22T19:43:18;94023.03;;;15.08;100.00
21828;BME280;11076;47.942;11.804;2023-05-22T19:48:20;94020.25;;;14.98;100.00
21828;BME280;11076;47.942;11.804;2023-05-22T19:53:23;94029.72;;;15.06;100.00
21828;BME280;11076;47.942;11.804;2023-05-22T19:58:25;94035.00;;;15.23;100.00
21828;BME280;11076;47.942;11.804;2023-05-22T20:03:28;94052.50;;;15.25;100.00
21828;BME280;11076;47.942;11.804;2023-05-22T20:08:30;94050.28;;;15.17;100.00
21828;BME280;11076;47.942;11.804;2023-05-22T20:13:32;94055.59;;;15.07;100.00
21828;BME280;11076;47.942;11.804;2023-05-22T20:18:35;94051.47;;;14.99;100.00
21828;BME280;11076;47.942;11.804;2023-05-22T20:23:39;94046.34;;;14.98;100.00
21828;BME280;11076;47.942;11.804;2023-05-22T20:28:42;94043.91;;;14.96;100.00
21828;BME280;11076;47.942;11.804;2023-05-22T20:33:44;94054.78;;;15.06;100.00
21828;BME280;11076;47.942;11.804;2023-05-22T20:38:47;94066.34;;;15.07;100.00
21828;BME280;11076;47.942;11.804;2023-05-22T20:43:49;94070.53;;;14.93;100.00
21828;BME280;11076;47.942;11.804;2023-05-22T20:48:52;94077.19;;;14.90;100.00
21828;BME280;11076;47.942;11.804;2023-05-22T20:53:55;94082.59;;;14.90;100.00
21828;BME280;11076;47.942;11.804;2023-05-22T20:58:57;94065.84;;;14.83;100.00
21828;BME280;11076;47.942;11.804;2023-05-22T21:04:00;94071.91;;;14.73;100.00
21828;BME280;11076;47.942;11.804;2023-05-22T21:09:03;94067.09;;;14.53;100.00
21828;BME280;11076;47.942;11.804;2023-05-22T21:14:05;94059.41;;;14.40;100.00
21828;BME280;11076;47.942;11.804;2023-05-22T21:19:07;94057.13;;;14.53;100.00
21828;BME280;11076;47.942;11.804;2023-05-22T21:24:10;94048.34;;;14.58;100.00
21828;BME280;11076;47.942;11.804;2023-05-22T21:29:12;94053.34;;;14.71;100.00
21828;BME280;11076;47.942;11.804;2023-05-22T21:34:15;94053.16;;;14.78;100.00
21828;BME280;11076;47.942;11.804;2023-05-22T21:39:17;94042.44;;;14.83;100.00
21828;BME280;11076;47.942;11.804;2023-05-22T21:44:20;94050.75;;;14.82;100.00
21828;BME280;11076;47.942;11.804;2023-05-22T21:49:22;94041.75;;;14.71;100.00
21828;BME280;11076;47.942;11.804;2023-05-22T21:54:24;94040.19;;;14.75;100.00
21828;BME280;11076;47.942;11.804;2023-05-22T21:59:27;94038.88;;;14.78;100.00
21828;BME280;11076;47.942;11.804;2023-05-22T22:04:29;94040.56;;;14.62;100.00
21828;BME280;11076;47.942;11.804;2023-05-22T22:09:32;94044.25;;;14.33;100.00
21828;BME280;11076;47.942;11.804;2023-05-22T22:14:34;94053.53;;;14.21;100.00
21828;BME280;11076;47.942;11.804;2023-05-22T22:19:37;94036.31;;;14.00;100.00
21828;BME280;11076;47.942;11.804;2023-05-22T22:24:41;94048.47;;;13.85;100.00
21828;BME280;11076;47.942;11.804;2023-05-22T22:29:43;94049.78;;;13.83;100.00
21828;BME280;11076;47.942;11.804;2023-05-22T22:34:46;94047.81;;;13.78;100.00
21828;BME280;11076;47.942;11.804;2023-05-22T22:39:49;94056.22;;;13.82;100.00
21828;BME280;11076;47.942;11.804;2023-05-22T22:44:52;94055.81;;;13.73;100.00
21828;BME280;11076;47.942;11.804;2023-05-22T22:49:54;94062.19;;;13.67;100.00
21828;BME280;11076;47.942;11.804;2023-05-22T22:54:58;94064.13;;;13.71;100.00
21828;BME280;11076;47.942;11.804;2023-05-22T23:00:00;94057.69;;;13.72;100.00
21828;BME280;11076;47.942;11.804;2023-05-22T23:05:03;94072.41;;;13.70;100.00
21828;BME280;11076;47.942;11.804;2023-05-22T23:10:06;94067.13;;;13.58;100.00
21828;BME280;11076;47.942;11.804;2023-05-22T23:15:09;94064.44;;;13.58;100.00
21828;BME280;11076;47.942;11.804;2023-05-22T23:20:14;94069.81;;;13.58;100.00
21828;BME280;11076;47.942;11.804;2023-05-22T23:25:16;94071.53;;;13.64;100.00
21828;BME280;11076;47.942;11.804;2023-05-22T23:30:18;94069.72;;;13.87;100.00
21828;BME280;11076;47.942;11.804;2023-05-22T23:35:21;94064.28;;;13.82;100.00
21828;BME280;11076;47.942;11.804;2023-05-22T23:40:23;94065.97;;;13.88;100.00
21828;BME280;11076;47.942;11.804;2023-05-22T23:45:26;94062.50;;;14.09;100.00
21828;BME280;11076;47.942;11.804;2023-05-22T23:50:28;94060.16;;;14.35;100.00
21828;BME280;11076;47.942;11.804;2023-05-22T23:55:30;94055.56;;;14.36;100.00
